createdAt,value
2022-10-20T00:01:36.420Z,1.20
2022-10-20T00:06:31.601Z,1.40
2022-10-20T00:09:00.019Z,2.40
2022-10-20T00:11:27.198Z,1.10
2022-10-20T00:13:54.529Z,4.40
2022-10-20T00:16:21.649Z,2.10
2022-10-20T00:18:48.602Z,1.50
2022-10-20T00:21:17.000Z,1.80
2022-10-20T00:23:43.952Z,0.80
2022-10-20T00:26:15.525Z,1.40
2022-10-20T00:28:42.640Z,1.60
2022-10-20T00:31:09.580Z,1.20
2022-10-20T00:33:36.400Z,1.30
2022-10-20T00:36:04.449Z,1.90
2022-10-20T00:38:31.415Z,1.20
2022-10-20T00:41:00.258Z,2.50
2022-10-20T00:43:44.208Z,4.50
2022-10-20T00:46:15.558Z,1.40
2022-10-20T00:48:42.847Z,1.20
2022-10-20T00:51:09.593Z,0.70
2022-10-20T00:53:36.369Z,1.80
2022-10-20T00:56:03.329Z,1.10
2022-10-20T00:58:30.223Z,1.40
2022-10-20T01:00:57.916Z,1.90
2022-10-20T01:03:28.175Z,3.60
2022-10-20T01:05:54.990Z,2.00
2022-10-20T01:11:27.519Z,1.10
2022-10-20T01:14:13.133Z,5.10
2022-10-20T01:16:42.880Z,2.70
2022-10-20T01:19:57.080Z,3.40
2022-10-20T01:22:35.751Z,1.00
2022-10-20T01:25:17.552Z,3.50
2022-10-20T01:27:48.596Z,0.90
2022-10-20T01:30:21.023Z,1.10
2022-10-20T01:32:56.050Z,1.80
2022-10-20T01:35:25.505Z,0.80
2022-10-20T01:37:59.388Z,3.50
2022-10-20T01:40:27.895Z,1.60
2022-10-20T01:42:55.115Z,2.50
2022-10-20T01:45:21.953Z,4.10
2022-10-20T01:50:15.563Z,5.80
2022-10-20T01:52:42.393Z,6.00
2022-10-20T01:58:00.248Z,3.30
2022-10-20T02:00:27.022Z,2.30
2022-10-20T02:05:33.315Z,0.80
2022-10-20T02:08:30.846Z,2.70
2022-10-20T02:10:59.351Z,2.10
2022-10-20T02:13:26.110Z,2.50
2022-10-20T02:15:54.295Z,5.30
2022-10-20T02:18:24.622Z,2.10
2022-10-20T02:20:52.197Z,1.50
2022-10-20T02:23:18.944Z,1.40
2022-10-20T02:28:13.554Z,5.20
2022-10-20T02:30:40.324Z,0.80
2022-10-20T02:33:07.024Z,1.60
2022-10-20T02:35:34.853Z,1.80
2022-10-20T02:38:01.798Z,1.50
2022-10-20T02:40:28.588Z,1.10
2022-10-20T02:45:22.116Z,1.00
2022-10-20T02:47:48.903Z,2.10
2022-10-20T02:52:44.023Z,1.60
2022-10-20T02:57:38.232Z,1.30
2022-10-20T03:00:06.824Z,3.80
2022-10-20T03:02:33.661Z,1.10
2022-10-20T03:07:27.066Z,5.00
2022-10-20T03:09:53.809Z,2.40
2022-10-20T03:14:47.200Z,2.90
2022-10-20T03:17:13.975Z,2.90
2022-10-20T03:19:41.449Z,3.70
2022-10-20T03:22:08.155Z,2.80
2022-10-20T03:24:34.896Z,1.70
2022-10-20T03:27:01.654Z,1.70
2022-10-20T03:29:28.395Z,1.80
2022-10-20T03:31:55.104Z,2.10
2022-10-20T03:34:21.906Z,7.80
2022-10-20T03:36:48.613Z,1.50
2022-10-20T03:39:15.398Z,3.40
2022-10-20T03:41:42.186Z,1.80
2022-10-20T03:44:10.584Z,2.60
2022-10-20T03:46:37.285Z,1.70
2022-10-20T03:49:04.308Z,3.00
2022-10-20T03:51:31.028Z,4.30
2022-10-20T03:53:57.727Z,9.00
2022-10-20T03:56:24.504Z,5.10
2022-10-20T03:58:51.276Z,3.10
2022-10-20T04:03:45.893Z,2.40
2022-10-20T04:08:39.912Z,1.30
2022-10-20T04:11:06.769Z,1.80
2022-10-20T04:13:33.545Z,4.60
2022-10-20T04:18:26.970Z,1.50
2022-10-20T04:20:53.726Z,2.60
2022-10-20T04:23:20.630Z,3.60
2022-10-20T04:28:16.275Z,2.20
2022-10-20T04:30:43.307Z,1.30
2022-10-20T04:33:10.420Z,1.50
2022-10-20T04:35:37.161Z,2.60
2022-10-20T04:38:04.072Z,5.30
2022-10-20T04:42:59.980Z,1.20
2022-10-20T04:45:27.125Z,1.90
2022-10-20T04:47:54.174Z,0.90
2022-10-20T04:50:20.899Z,1.70
2022-10-20T04:53:06.601Z,1.40
2022-10-20T04:55:33.540Z,3.60
2022-10-20T04:58:00.299Z,1.30
2022-10-20T05:00:27.069Z,2.40
2022-10-20T05:02:54.901Z,2.10
2022-10-20T05:05:21.656Z,2.00
2022-10-20T05:07:48.375Z,2.10
2022-10-20T05:10:15.214Z,1.40
2022-10-20T05:15:08.942Z,1.10
2022-10-20T05:17:35.662Z,2.30
2022-10-20T05:20:02.421Z,4.20
2022-10-20T05:25:04.018Z,2.70
2022-10-20T05:27:39.822Z,2.20
2022-10-20T05:30:07.081Z,3.80
2022-10-20T05:32:34.199Z,2.30
2022-10-20T05:35:01.198Z,1.90
2022-10-20T05:37:27.987Z,3.50
2022-10-20T05:39:54.715Z,3.90
2022-10-20T05:44:48.125Z,2.20
2022-10-20T05:47:14.860Z,6.60
2022-10-20T05:49:41.616Z,2.60
2022-10-20T05:54:35.021Z,5.60
2022-10-20T05:57:01.765Z,3.00
2022-10-20T05:59:28.517Z,3.90
2022-10-20T06:01:55.254Z,4.70
2022-10-20T06:04:23.811Z,2.50
2022-10-20T06:06:51.656Z,2.80
2022-10-20T06:09:18.579Z,4.00
2022-10-20T06:14:11.985Z,2.10
2022-10-20T06:16:38.995Z,9.20
2022-10-20T06:19:07.173Z,3.30
2022-10-20T06:21:34.405Z,3.70
2022-10-20T06:24:01.912Z,1.60
2022-10-20T06:26:36.715Z,1.80
2022-10-20T06:29:05.091Z,3.40
2022-10-20T06:31:34.357Z,2.80
2022-10-20T06:34:01.226Z,2.90
2022-10-20T06:38:55.708Z,2.50
2022-10-20T06:41:22.563Z,5.80
2022-10-20T06:46:17.635Z,4.30
2022-10-20T06:48:44.895Z,2.90
2022-10-20T06:51:13.273Z,1.70
2022-10-20T06:53:42.751Z,2.30
2022-10-20T06:56:14.500Z,4.50
2022-10-20T06:58:41.966Z,5.20
2022-10-20T07:01:14.728Z,3.80
2022-10-20T07:03:41.818Z,2.60
2022-10-20T07:06:08.819Z,3.10
2022-10-20T07:08:36.200Z,3.70
2022-10-20T07:11:07.666Z,2.00
2022-10-20T07:13:35.184Z,4.30
2022-10-20T07:16:02.033Z,5.10
2022-10-20T07:20:59.718Z,3.90
2022-10-20T07:23:27.240Z,4.00
2022-10-20T07:26:03.647Z,3.70
2022-10-20T07:28:30.488Z,5.40
2022-10-20T08:42:12.178Z,5.00
2022-10-20T08:44:40.033Z,3.70
2022-10-20T08:47:26.649Z,4.50
2022-10-20T08:49:56.129Z,3.60
2022-10-20T08:52:23.981Z,4.90
2022-10-20T08:54:52.829Z,3.70
2022-10-20T08:57:33.450Z,3.10
2022-10-20T09:00:22.532Z,4.40
2022-10-20T09:02:50.462Z,2.80
2022-10-20T09:05:26.079Z,2.80
2022-10-20T09:08:05.962Z,5.80
2022-10-20T09:10:40.327Z,3.00
2022-10-20T09:13:11.954Z,3.10
2022-10-20T09:15:38.727Z,3.70
2022-10-20T09:21:07.083Z,6.30
2022-10-20T09:23:44.580Z,3.50
2022-10-20T09:26:24.757Z,5.80
2022-10-20T09:29:12.889Z,4.40
2022-10-20T09:31:52.105Z,4.30
2022-10-20T09:34:23.272Z,5.50
2022-10-20T09:36:51.523Z,4.80
2022-10-20T09:39:21.189Z,6.80
2022-10-20T09:41:48.317Z,8.10
2022-10-20T09:44:17.157Z,6.20
2022-10-20T09:46:48.778Z,4.90
2022-10-20T09:49:35.198Z,3.10
2022-10-20T09:52:02.297Z,4.00
2022-10-20T09:54:29.069Z,3.30
2022-10-20T09:57:04.590Z,3.80
2022-10-20T09:59:38.983Z,4.60
2022-10-20T10:02:15.002Z,2.90
2022-10-20T10:04:44.046Z,6.30
2022-10-20T10:07:26.173Z,8.20
2022-10-20T10:09:56.661Z,3.30
2022-10-20T10:12:24.157Z,5.90
2022-10-20T10:15:06.115Z,6.40
2022-10-20T10:17:33.968Z,5.30
2022-10-20T10:20:01.656Z,3.50
2022-10-20T10:22:28.438Z,4.40
2022-10-20T10:27:23.567Z,5.60
2022-10-20T10:29:50.321Z,3.60
2022-10-20T10:32:27.288Z,5.20
2022-10-20T10:35:00.652Z,6.10
2022-10-20T10:37:30.891Z,6.10
2022-10-20T10:40:02.828Z,9.40
2022-10-20T10:42:35.934Z,3.70
2022-10-20T10:45:10.382Z,5.30
2022-10-20T10:48:08.312Z,6.00
2022-10-20T10:50:47.263Z,12.60
2022-10-20T10:53:32.809Z,3.90
2022-10-20T10:58:45.650Z,5.00
2022-10-20T11:01:43.430Z,4.70
2022-10-20T11:04:23.527Z,7.00
2022-10-20T11:06:58.315Z,4.20
2022-10-20T11:09:52.031Z,4.20
2022-10-20T11:12:33.622Z,4.20
2022-10-20T11:15:20.741Z,2.20
2022-10-20T11:18:28.523Z,3.10
2022-10-20T11:21:45.337Z,3.20
2022-10-20T11:24:30.206Z,3.40
2022-10-20T11:27:02.027Z,3.00
2022-10-20T11:29:32.989Z,4.50
2022-10-20T11:32:14.798Z,8.00
2022-10-20T11:34:50.813Z,2.90
2022-10-20T11:37:23.850Z,3.10
2022-10-20T11:40:11.711Z,3.30
2022-10-20T11:43:12.421Z,2.70
2022-10-20T11:45:52.549Z,4.20
2022-10-20T11:48:22.006Z,3.80
2022-10-20T11:50:52.182Z,2.80
2022-10-20T11:53:35.913Z,4.70
2022-10-20T11:56:24.090Z,3.90
2022-10-20T11:58:56.665Z,4.50
2022-10-20T12:01:30.401Z,12.60
2022-10-20T12:04:25.018Z,12.90
2022-10-20T12:07:10.596Z,2.60
2022-10-20T12:09:46.375Z,2.30
2022-10-20T12:12:19.982Z,3.80
2022-10-20T12:14:52.493Z,3.60
2022-10-20T12:17:35.824Z,3.70
2022-10-20T12:20:20.908Z,5.10
2022-10-20T12:22:52.065Z,4.30
2022-10-20T12:25:25.229Z,3.10
2022-10-20T12:28:19.913Z,2.50
2022-10-20T12:30:55.907Z,3.00
2022-10-20T12:33:54.244Z,5.10
2022-10-20T12:36:28.747Z,4.60
2022-10-20T12:39:16.064Z,4.00
2022-10-20T12:42:01.726Z,2.90
2022-10-20T12:44:31.317Z,3.50
2022-10-20T12:47:05.456Z,6.10
2022-10-20T12:49:39.326Z,3.60
2022-10-20T12:52:07.553Z,7.00
2022-10-20T12:54:37.930Z,3.30
2022-10-20T12:57:25.199Z,2.90
2022-10-20T12:59:51.968Z,17.80
2022-10-20T13:02:24.714Z,3.90
2022-10-20T13:05:06.945Z,3.30
2022-10-20T13:07:46.828Z,3.40
2022-10-20T13:10:32.478Z,5.20
2022-10-20T13:13:02.276Z,2.70
2022-10-20T13:15:36.323Z,6.50
2022-10-20T13:18:12.389Z,2.70
2022-10-20T13:20:42.104Z,3.80
2022-10-20T13:23:13.264Z,5.60
2022-10-20T13:25:43.461Z,1.90
2022-10-20T13:28:13.444Z,3.40
2022-10-20T13:30:52.566Z,1.80
2022-10-20T13:33:58.807Z,3.80
2022-10-20T13:36:52.222Z,3.50
2022-10-20T13:39:32.240Z,4.80
2022-10-20T13:42:01.982Z,4.40
2022-10-20T13:45:02.962Z,2.80
2022-10-20T13:47:34.312Z,3.50
2022-10-20T13:50:12.762Z,4.60
2022-10-20T13:52:42.000Z,8.30
2022-10-20T13:55:12.758Z,6.50
2022-10-20T13:57:46.890Z,7.80
2022-10-20T14:00:25.180Z,5.30
2022-10-20T14:02:54.068Z,3.60
2022-10-20T14:05:21.439Z,10.40
2022-10-20T14:07:49.380Z,3.10
2022-10-20T14:10:25.690Z,5.80
2022-10-20T14:12:53.054Z,3.60
2022-10-20T14:15:53.737Z,3.50
2022-10-20T14:18:32.305Z,4.30
2022-10-20T14:21:08.339Z,3.80
2022-10-20T14:23:37.143Z,2.30
2022-10-20T14:26:05.151Z,6.10
2022-10-20T14:28:34.841Z,4.70
2022-10-20T14:31:01.570Z,4.50
2022-10-20T14:33:29.217Z,3.80
2022-10-20T14:35:57.308Z,10.00
2022-10-20T14:38:27.709Z,3.40
2022-10-20T14:40:55.861Z,6.20
2022-10-20T14:43:31.865Z,6.50
2022-10-20T14:45:59.890Z,4.20
2022-10-20T14:48:31.583Z,4.90
2022-10-20T14:50:58.296Z,7.10
2022-10-20T14:55:57.530Z,5.10
2022-10-20T14:58:37.694Z,6.00
2022-10-20T15:01:24.391Z,7.60
2022-10-20T15:04:24.456Z,4.90
2022-10-20T15:06:51.242Z,7.00
2022-10-20T15:09:29.633Z,4.10
2022-10-20T15:11:56.385Z,5.80
2022-10-20T15:14:23.140Z,3.30
2022-10-20T15:19:34.928Z,4.90
2022-10-20T15:22:05.355Z,10.40
2022-10-20T15:24:32.076Z,9.10
2022-10-20T15:26:58.876Z,7.80
2022-10-20T15:31:53.893Z,6.70
2022-10-20T15:34:20.982Z,5.00
2022-10-20T15:36:50.333Z,9.80
2022-10-20T15:39:18.038Z,4.30
2022-10-20T15:41:45.161Z,8.40
2022-10-20T15:44:14.265Z,6.30
2022-10-20T15:46:42.122Z,13.40
2022-10-20T15:49:09.372Z,7.30
2022-10-20T15:51:36.428Z,22.50
2022-10-20T15:54:03.264Z,10.40
2022-10-20T15:58:56.802Z,5.50
2022-10-20T16:03:50.954Z,20.80
2022-10-20T16:06:18.459Z,6.00
2022-10-20T16:08:46.654Z,5.40
2022-10-20T16:11:13.970Z,4.00
2022-10-20T16:13:40.756Z,11.30
2022-10-20T16:18:35.228Z,11.20
2022-10-20T16:21:03.615Z,7.50
2022-10-20T16:23:30.333Z,13.80
2022-10-20T16:25:57.031Z,5.50
2022-10-20T16:28:23.768Z,4.40
2022-10-20T16:30:50.526Z,5.10
2022-10-20T16:33:17.244Z,13.50
2022-10-20T16:35:44.449Z,5.00
2022-10-20T16:38:11.275Z,4.00
2022-10-20T16:43:04.667Z,5.10
2022-10-20T16:45:31.456Z,5.20
2022-10-20T16:50:25.176Z,5.80
2022-10-20T16:52:52.019Z,24.50
2022-10-20T16:57:45.497Z,8.40
2022-10-20T17:02:42.977Z,5.00
2022-10-20T17:05:10.121Z,5.70
2022-10-20T17:07:37.091Z,17.10
2022-10-20T17:10:04.357Z,5.50
2022-10-20T17:12:31.117Z,5.00
2022-10-20T17:14:57.842Z,5.50
2022-10-20T17:19:51.783Z,5.00
2022-10-20T17:24:45.147Z,4.40
2022-10-20T17:27:11.952Z,7.10
2022-10-20T17:32:05.800Z,3.40
2022-10-20T17:34:32.758Z,4.50
2022-10-20T17:36:59.701Z,5.60
2022-10-20T17:39:27.898Z,6.70
2022-10-20T17:41:54.750Z,5.40
2022-10-20T17:46:48.456Z,3.60
2022-10-20T17:51:44.587Z,4.60
2022-10-20T17:54:13.486Z,3.70
2022-10-20T17:56:41.480Z,3.70
2022-10-20T17:59:09.520Z,5.70
2022-10-20T18:01:38.307Z,5.20
2022-10-20T18:04:07.234Z,17.70
2022-10-20T18:06:34.815Z,4.70
2022-10-20T18:09:04.911Z,4.50
2022-10-20T18:11:34.029Z,7.10
2022-10-20T18:14:01.040Z,3.80
2022-10-20T18:16:29.276Z,5.70
2022-10-20T18:18:59.598Z,6.60
2022-10-20T18:21:27.296Z,9.00
2022-10-20T18:23:58.164Z,8.50
2022-10-20T18:26:25.188Z,7.20
2022-10-20T18:28:52.128Z,8.60
2022-10-20T18:31:23.528Z,6.50
2022-10-20T18:33:51.685Z,6.00
2022-10-20T18:36:18.905Z,10.10
2022-10-20T18:38:46.253Z,20.30
2022-10-20T18:41:18.170Z,28.30
2022-10-20T18:43:47.846Z,23.00
2022-10-20T18:46:14.941Z,14.30
2022-10-20T18:48:41.793Z,27.00
2022-10-20T18:51:10.424Z,9.00
2022-10-20T18:53:37.901Z,8.60
2022-10-20T18:56:14.942Z,6.10
2022-10-20T18:58:43.556Z,7.70
2022-10-20T19:01:12.302Z,6.10
2022-10-20T19:03:39.421Z,9.90
2022-10-20T19:06:08.652Z,9.50
2022-10-20T19:08:36.170Z,9.90
2022-10-20T19:11:03.879Z,5.30
2022-10-20T19:13:30.660Z,4.30
2022-10-20T19:15:57.758Z,9.90
2022-10-20T19:18:25.457Z,7.50
2022-10-20T19:20:55.275Z,9.40
2022-10-20T19:23:22.553Z,5.20
2022-10-20T19:26:02.027Z,4.50
2022-10-20T19:28:29.847Z,5.20
2022-10-20T19:30:56.588Z,4.60
2022-10-20T19:33:23.549Z,5.30
2022-10-20T19:35:50.551Z,3.60
2022-10-20T19:38:17.720Z,6.00
2022-10-20T19:40:44.577Z,8.40
2022-10-20T19:45:37.974Z,6.40
2022-10-20T19:48:04.859Z,5.30
2022-10-20T19:52:58.905Z,6.10
2022-10-20T19:55:25.770Z,5.70
2022-10-20T19:57:53.107Z,8.20
2022-10-20T20:00:19.831Z,7.60
2022-10-20T20:02:47.019Z,12.70
2022-10-20T20:05:13.823Z,6.60
2022-10-20T20:07:40.855Z,5.00
2022-10-20T20:10:07.779Z,7.00
2022-10-20T20:12:34.536Z,6.10
2022-10-20T20:15:01.260Z,5.20
2022-10-20T20:17:28.096Z,4.60
2022-10-20T20:22:21.499Z,5.70
2022-10-20T20:24:48.216Z,7.60
2022-10-20T20:27:15.004Z,8.70
2022-10-20T20:29:41.771Z,4.10
2022-10-20T20:34:35.183Z,7.20
2022-10-20T20:37:01.911Z,4.50
2022-10-20T20:39:28.670Z,5.70
2022-10-20T20:41:55.450Z,6.40
2022-10-20T20:46:53.873Z,8.70
2022-10-20T20:51:47.241Z,8.30
2022-10-20T20:54:13.972Z,8.00
2022-10-20T20:59:19.983Z,9.30
2022-10-20T21:01:46.685Z,8.20
2022-10-20T21:04:13.613Z,6.70
2022-10-20T21:09:27.722Z,7.00
2022-10-20T21:11:54.432Z,7.00
2022-10-20T21:14:21.162Z,4.90
2022-10-20T21:16:47.931Z,6.60
2022-10-20T21:21:50.380Z,6.00
2022-10-20T21:24:17.507Z,6.30
2022-10-20T21:26:44.280Z,6.40
2022-10-20T21:29:10.975Z,6.20
2022-10-20T21:31:37.713Z,5.40
2022-10-20T21:34:04.880Z,8.40
2022-10-20T21:36:32.553Z,8.40
2022-10-20T21:38:59.411Z,6.20
2022-10-20T21:43:55.739Z,6.20
2022-10-20T21:46:23.510Z,5.70
2022-10-20T21:48:51.409Z,3.70
2022-10-20T21:51:18.971Z,4.90
2022-10-20T21:53:45.940Z,4.50
2022-10-20T21:56:12.882Z,4.90
2022-10-20T21:58:39.726Z,5.80
2022-10-20T22:03:40.405Z,4.30
2022-10-20T22:06:08.154Z,5.40
2022-10-20T22:08:36.154Z,10.30
2022-10-20T22:11:26.613Z,6.50
2022-10-20T22:13:53.493Z,6.40
2022-10-20T22:16:26.839Z,8.80
2022-10-20T22:18:57.674Z,6.80
2022-10-20T22:21:24.584Z,8.70
2022-10-20T22:26:22.117Z,10.90
2022-10-20T22:28:50.818Z,10.50
2022-10-20T22:31:18.199Z,8.30
2022-10-20T22:33:45.003Z,7.60
2022-10-20T22:36:11.731Z,9.50
2022-10-20T22:38:38.534Z,6.40
2022-10-20T22:41:05.291Z,6.20
2022-10-20T22:45:58.765Z,5.60
2022-10-20T22:50:52.195Z,7.40
2022-10-20T22:55:45.641Z,7.00
2022-10-20T22:58:12.436Z,4.90
2022-10-20T23:03:06.671Z,7.60
2022-10-20T23:08:00.218Z,8.80
2022-10-20T23:10:27.179Z,8.40
2022-10-20T23:15:20.625Z,7.90
2022-10-20T23:17:47.565Z,6.90
2022-10-20T23:20:14.383Z,10.10
2022-10-20T23:25:08.335Z,9.80
2022-10-20T23:27:35.433Z,10.80
2022-10-20T23:30:02.641Z,9.20
2022-10-20T23:34:56.151Z,7.20
2022-10-20T23:39:50.622Z,10.60
2022-10-20T23:44:44.110Z,20.30
2022-10-20T23:47:10.833Z,34.00
2022-10-20T23:49:37.624Z,22.90
2022-10-20T23:52:04.450Z,24.90
2022-10-20T23:56:57.928Z,24.70
